Time;durP1;ratioP1;P1;durP2;ratioP2;P2;SDS_P1;SDS_P2;PMS_P1;PMS_P2;Temp;Humidity;BMP_temperature;BMP_pressure;BME280_temperature;BME280_humidity;BME280_pressure;Samples;Min_cycle;Max_cycle;Signal;HPM_P1;HPM_P2
2024/02/14 00:00:13;;;;;;;3.50;2.60;;;6.80;99.90;;;;;;4986689;28;20470;-80
2024/02/14 00:02:42;;;;;;;3.23;3.03;;;6.80;99.90;;;;;;5000699;28;20464;-81
2024/02/14 00:05:10;;;;;;;5.47;3.07;;;6.80;99.90;;;;;;5000751;28;20454;-81
2024/02/14 00:07:40;;;;;;;3.80;3.43;;;6.80;99.90;;;;;;5000699;28;20544;-81
2024/02/14 00:10:09;;;;;;;4.33;2.90;;;6.80;99.90;;;;;;5001795;28;20458;-83
2024/02/14 00:12:37;;;;;;;3.10;2.80;;;6.80;99.90;;;;;;5006682;28;20454;-82
2024/02/14 00:15:07;;;;;;;6.93;4.30;;;6.80;99.90;;;;;;5007647;28;20465;-83
2024/02/14 00:17:36;;;;;;;3.00;2.80;;;6.80;99.90;;;;;;5004753;28;20478;-82
2024/02/14 00:20:05;;;;;;;3.43;3.13;;;6.80;99.90;;;;;;5006746;28;20462;-83
2024/02/14 00:22:33;;;;;;;3.93;3.47;;;6.90;99.90;;;;;;5010456;28;20527;-84
2024/02/14 00:25:04;;;;;;;3.73;3.20;;;7.00;99.90;;;;;;5004626;28;20461;-81
2024/02/14 00:27:33;;;;;;;4.93;3.97;;;7.00;99.90;;;;;;5009405;28;20485;-83
2024/02/14 00:30:03;;;;;;;3.20;2.90;;;7.10;99.90;;;;;;5006696;28;20971;-84
2024/02/14 00:32:31;;;;;;;3.20;2.70;;;7.30;99.90;;;;;;4988858;28;20541;-84
2024/02/14 00:35:00;;;;;;;3.50;3.00;;;7.40;99.90;;;;;;5003022;28;20452;-84
2024/02/14 00:37:29;;;;;;;3.53;3.03;;;7.40;99.90;;;;;;5015814;28;20457;-81
2024/02/14 00:39:57;;;;;;;3.77;3.47;;;7.60;99.90;;;;;;5000967;28;20581;-85
2024/02/14 00:42:27;;;;;;;3.90;2.87;;;7.60;99.90;;;;;;5011750;28;20522;-82
2024/02/14 00:44:55;;;;;;;3.53;3.33;;;7.70;99.90;;;;;;4993920;28;20470;-86
2024/02/14 00:47:24;;;;;;;3.27;3.07;;;7.60;99.90;;;;;;5013222;28;20438;-82
2024/02/14 00:49:52;;;;;;;3.90;3.57;;;7.70;99.90;;;;;;4995735;28;20823;-85
2024/02/14 00:52:21;;;;;;;7.77;3.07;;;7.70;99.90;;;;;;5014552;28;20489;-83
2024/02/14 00:54:50;;;;;;;4.23;3.00;;;7.80;99.90;;;;;;5015527;28;20450;-85
2024/02/14 00:57:19;;;;;;;2.93;2.73;;;7.70;99.90;;;;;;5011526;28;20465;-82
2024/02/14 00:59:49;;;;;;;5.33;3.90;;;7.70;99.90;;;;;;5017829;28;20446;-83
2024/02/14 01:02:18;;;;;;;3.67;3.37;;;7.80;99.90;;;;;;5016468;28;20472;-83
2024/02/14 01:04:46;;;;;;;3.63;3.43;;;8.00;99.90;;;;;;5015589;28;20517;-82
2024/02/14 01:07:14;;;;;;;2.60;2.40;;;7.90;99.90;;;;;;5017020;28;20489;-84
2024/02/14 01:09:42;;;;;;;3.23;2.93;;;7.90;99.90;;;;;;5015199;28;21062;-85
2024/02/14 01:12:10;;;;;;;3.70;3.10;;;7.90;99.90;;;;;;5016744;28;20456;-84
2024/02/14 01:14:38;;;;;;;3.53;3.23;;;7.90;99.90;;;;;;5016126;28;20458;-84
2024/02/14 01:17:08;;;;;;;3.40;3.00;;;7.80;99.90;;;;;;5013420;28;20464;-82
2024/02/14 01:19:37;;;;;;;3.90;3.20;;;7.80;99.90;;;;;;5005235;28;20469;-81
2024/02/14 01:22:07;;;;;;;3.40;3.10;;;7.80;99.90;;;;;;5002274;28;20555;-80
2024/02/14 01:24:35;;;;;;;3.53;2.93;;;7.90;99.90;;;;;;5003190;28;20508;-82
2024/02/14 01:27:04;;;;;;;3.30;3.00;;;7.90;99.90;;;;;;5002942;28;20450;-80
2024/02/14 01:29:32;;;;;;;4.23;3.20;;;7.90;99.90;;;;;;5008589;28;20474;-82
2024/02/14 01:32:01;;;;;;;4.03;3.73;;;7.90;99.90;;;;;;5009776;28;20464;-83
2024/02/14 01:34:31;;;;;;;3.10;2.80;;;7.80;99.90;;;;;;5008873;28;20523;-84
2024/02/14 01:36:59;;;;;;;3.53;3.30;;;7.80;99.90;;;;;;5009052;28;20449;-81
2024/02/14 01:39:27;;;;;;;2.90;2.73;;;7.90;99.90;;;;;;5007436;28;20476;-83
2024/02/14 01:41:55;;;;;;;3.83;3.53;;;7.90;99.90;;;;;;5007215;28;20480;-83
2024/02/14 01:44:24;;;;;;;3.87;3.40;;;7.80;99.90;;;;;;5006809;28;20458;-84
2024/02/14 01:46:52;;;;;;;3.70;3.40;;;7.80;99.90;;;;;;5000227;28;20444;-82
2024/02/14 01:49:20;;;;;;;3.57;3.10;;;7.80;99.90;;;;;;5003685;28;20480;-81
2024/02/14 01:51:50;;;;;;;3.53;3.23;;;7.80;99.90;;;;;;5005091;28;20534;-82
2024/02/14 01:54:19;;;;;;;3.30;3.10;;;7.80;99.90;;;;;;4999133;28;20454;-83
2024/02/14 01:56:47;;;;;;;5.13;3.43;;;7.80;99.90;;;;;;4999142;28;20453;-80
2024/02/14 01:59:16;;;;;;;3.70;3.40;;;7.80;99.90;;;;;;5004617;28;20470;-81
2024/02/14 02:01:44;;;;;;;3.13;2.93;;;7.70;99.90;;;;;;5002500;28;20461;-81
2024/02/14 02:04:13;;;;;;;3.77;3.47;;;7.80;99.90;;;;;;5004822;28;20465;-83
2024/02/14 02:06:41;;;;;;;3.47;3.17;;;7.80;99.90;;;;;;5007812;28;20449;-83
2024/02/14 02:09:11;;;;;;;3.40;3.20;;;8.00;99.90;;;;;;5003581;28;20490;-83
2024/02/14 02:11:50;;;;;;;4.30;3.70;;;7.90;99.90;;;;;;5003816;28;20460;-82
2024/02/14 02:14:19;;;;;;;4.93;3.00;;;7.90;99.90;;;;;;5005717;28;20450;-82
2024/02/14 02:16:47;;;;;;;3.40;3.10;;;8.00;99.90;;;;;;5001447;28;20459;-79
2024/02/14 02:19:15;;;;;;;2.80;2.60;;;8.00;99.90;;;;;;5000903;28;20481;-80
2024/02/14 02:21:45;;;;;;;3.50;3.20;;;8.10;99.90;;;;;;5002258;28;20480;-85
2024/02/14 02:24:15;;;;;;;3.23;2.87;;;8.10;99.90;;;;;;5000126;28;20450;-82
2024/02/14 02:26:43;;;;;;;2.97;2.77;;;8.10;99.90;;;;;;5015895;28;20457;-79
2024/02/14 02:29:12;;;;;;;3.83;3.50;;;8.10;99.90;;;;;;4996636;28;20501;-77
2024/02/14 02:31:40;;;;;;;5.80;3.50;;;8.10;99.90;;;;;;5002273;28;20461;-81
2024/02/14 02:34:10;;;;;;;3.50;3.23;;;8.10;99.90;;;;;;5001055;28;20457;-79
2024/02/14 02:36:39;;;;;;;2.93;2.73;;;8.00;99.90;;;;;;4996606;28;20456;-81
2024/02/14 02:39:07;;;;;;;2.90;2.63;;;8.00;99.90;;;;;;4998580;28;20474;-80
2024/02/14 02:41:37;;;;;;;2.63;2.40;;;8.00;99.90;;;;;;4999274;28;20458;-77
2024/02/14 02:44:06;;;;;;;3.03;2.50;;;8.00;99.90;;;;;;4999556;28;20515;-80
2024/02/14 02:46:34;;;;;;;2.97;2.70;;;7.90;99.90;;;;;;4998738;28;20822;-78
2024/02/14 02:49:03;;;;;;;3.27;2.97;;;7.80;99.90;;;;;;4998498;28;20509;-79
2024/02/14 02:51:32;;;;;;;3.53;2.57;;;7.80;99.90;;;;;;5000627;28;20434;-79
2024/02/14 02:54:00;;;;;;;4.37;2.57;;;7.80;99.90;;;;;;5003799;28;20452;-79
2024/02/14 02:56:29;;;;;;;3.47;3.17;;;7.80;99.90;;;;;;5002413;28;20556;-79
2024/02/14 02:58:59;;;;;;;6.80;3.53;;;7.80;99.90;;;;;;5003753;28;20524;-80
2024/02/14 03:01:28;;;;;;;3.00;2.60;;;7.80;99.90;;;;;;5002801;28;20456;-79
2024/02/14 03:03:56;;;;;;;5.73;2.83;;;8.00;99.90;;;;;;5002057;28;20474;-78
2024/02/14 03:06:25;;;;;;;7.20;3.03;;;8.00;99.90;;;;;;5003327;28;20457;-80
2024/02/14 03:08:55;;;;;;;2.83;2.63;;;8.00;99.90;;;;;;5001080;28;20573;-78
2024/02/14 03:11:24;;;;;;;4.43;3.33;;;8.00;99.90;;;;;;5002059;28;20446;-78
2024/02/14 03:13:53;;;;;;;3.00;2.50;;;8.20;99.90;;;;;;5000910;28;20449;-77
2024/02/14 03:16:24;;;;;;;3.07;2.40;;;8.10;99.90;;;;;;5002065;28;20461;-79
2024/02/14 03:18:53;;;;;;;3.07;2.80;;;8.20;99.90;;;;;;5000485;28;20478;-79
2024/02/14 03:21:22;;;;;;;3.13;2.83;;;8.30;99.90;;;;;;4992112;28;20454;-79
2024/02/14 03:23:50;;;;;;;2.77;2.50;;;8.10;99.90;;;;;;4995081;28;20469;-80
2024/02/14 03:26:18;;;;;;;2.97;2.67;;;8.10;99.90;;;;;;5005294;28;20453;-80
2024/02/14 03:28:48;;;;;;;3.70;3.00;;;8.10;99.90;;;;;;5002108;28;20473;-81
2024/02/14 03:31:16;;;;;;;4.57;2.87;;;8.10;99.90;;;;;;5009395;28;20442;-79
2024/02/14 03:33:46;;;;;;;2.90;2.70;;;8.10;99.90;;;;;;5007758;28;20476;-80
2024/02/14 03:36:14;;;;;;;4.77;2.23;;;8.00;99.90;;;;;;4995859;28;20454;-82
2024/02/14 03:38:42;;;;;;;3.70;2.60;;;8.00;99.90;;;;;;5011682;28;20954;-82
2024/02/14 03:41:10;;;;;;;3.20;2.90;;;7.90;99.90;;;;;;5003006;28;20820;-80
2024/02/14 03:43:39;;;;;;;3.20;2.50;;;8.00;99.90;;;;;;5005379;28;20470;-81
2024/02/14 03:46:07;;;;;;;2.57;2.37;;;8.00;99.90;;;;;;5001950;28;20461;-81
2024/02/14 03:48:35;;;;;;;2.30;2.10;;;7.90;99.90;;;;;;5005276;28;21061;-80
2024/02/14 03:51:06;;;;;;;6.07;2.73;;;7.90;99.90;;;;;;5006526;28;20489;-79
2024/02/14 03:53:34;;;;;;;2.63;1.90;;;7.80;99.90;;;;;;5003789;28;20465;-80
2024/02/14 03:56:02;;;;;;;3.87;2.17;;;7.90;99.90;;;;;;5007529;28;20453;-79
2024/02/14 03:58:30;;;;;;;2.50;2.40;;;7.80;99.90;;;;;;5005870;28;20503;-81
2024/02/14 04:00:59;;;;;;;2.47;2.27;;;8.00;99.90;;;;;;5004191;28;20957;-80
2024/02/14 04:03:28;;;;;;;2.83;2.20;;;8.00;99.90;;;;;;4996658;28;20449;-80
2024/02/14 04:05:57;;;;;;;5.23;2.43;;;8.10;99.90;;;;;;4989734;28;20455;-81
2024/02/14 04:08:27;;;;;;;2.53;2.37;;;8.10;99.90;;;;;;5003975;28;20564;-79
2024/02/14 04:10:55;;;;;;;2.47;2.27;;;8.20;99.90;;;;;;4994131;28;20488;-80
2024/02/14 04:13:24;;;;;;;2.00;1.90;;;8.20;99.90;;;;;;5006781;28;20466;-79
2024/02/14 04:15:53;;;;;;;4.43;2.07;;;8.10;99.90;;;;;;5006838;28;21281;-79
2024/02/14 04:18:21;;;;;;;1.90;1.80;;;8.20;99.90;;;;;;4989904;28;20565;-79
2024/02/14 04:20:49;;;;;;;2.17;1.90;;;8.10;99.90;;;;;;5003478;28;20461;-80
2024/02/14 04:23:17;;;;;;;2.43;2.20;;;8.10;99.90;;;;;;5003273;28;20457;-79
2024/02/14 04:25:48;;;;;;;2.40;2.30;;;8.10;99.90;;;;;;4987061;28;20461;-81
2024/02/14 04:28:16;;;;;;;2.40;1.80;;;8.00;99.90;;;;;;5001275;28;20481;-80
2024/02/14 04:30:45;;;;;;;2.10;2.00;;;8.20;99.90;;;;;;5002573;28;20495;-83
2024/02/14 04:33:13;;;;;;;2.53;2.00;;;8.00;99.90;;;;;;5004013;28;20484;-79
2024/02/14 04:35:42;;;;;;;2.63;2.30;;;8.10;99.90;;;;;;5004290;28;21257;-81
2024/02/14 04:38:10;;;;;;;2.00;1.90;;;8.10;99.90;;;;;;5002295;28;20489;-79
2024/02/14 04:40:39;;;;;;;2.50;2.30;;;8.10;99.90;;;;;;5003555;28;20446;-79
2024/02/14 04:43:08;;;;;;;2.50;2.10;;;8.00;99.90;;;;;;5001274;28;20453;-80
2024/02/14 04:45:36;;;;;;;3.20;2.53;;;7.90;99.90;;;;;;5000009;28;20454;-79
2024/02/14 04:48:05;;;;;;;2.10;2.00;;;7.90;99.90;;;;;;5001922;28;21031;-79
2024/02/14 04:50:34;;;;;;;2.63;2.43;;;7.90;99.90;;;;;;5000817;28;20481;-80
2024/02/14 04:53:02;;;;;;;2.43;2.23;;;7.90;99.90;;;;;;5002580;28;20466;-80
2024/02/14 04:55:30;;;;;;;2.30;2.10;;;8.00;99.90;;;;;;5000149;28;20502;-79
2024/02/14 04:57:58;;;;;;;2.63;2.00;;;8.00;99.90;;;;;;5002053;28;20835;-78
2024/02/14 05:00:28;;;;;;;3.60;2.23;;;7.80;99.90;;;;;;4998692;28;20912;-81
2024/02/14 05:02:57;;;;;;;1.87;1.73;;;7.90;99.90;;;;;;5000564;28;20561;-79
2024/02/14 05:05:25;;;;;;;3.60;1.73;;;7.90;99.90;;;;;;5003320;28;21101;-79
2024/02/14 05:07:54;;;;;;;2.60;1.60;;;8.10;99.90;;;;;;5001340;28;20585;-80
2024/02/14 05:10:22;;;;;;;1.93;1.80;;;8.10;99.90;;;;;;5003670;28;20489;-79
2024/02/14 05:12:50;;;;;;;2.23;1.83;;;8.10;99.90;;;;;;5000829;28;20477;-80
2024/02/14 05:15:18;;;;;;;4.00;1.93;;;8.20;99.90;;;;;;5005147;28;20507;-82
2024/02/14 05:17:49;;;;;;;2.50;1.97;;;8.30;99.90;;;;;;5003892;28;20490;-81
2024/02/14 05:20:18;;;;;;;2.07;1.70;;;8.10;99.90;;;;;;5007918;28;20443;-82
2024/02/14 05:22:46;;;;;;;3.63;1.80;;;8.10;99.90;;;;;;5009779;28;20476;-82
2024/02/14 05:25:14;;;;;;;2.37;2.00;;;8.20;99.90;;;;;;5006830;28;20454;-79
2024/02/14 05:27:43;;;;;;;2.30;2.00;;;8.20;99.90;;;;;;4986210;28;20471;-80
2024/02/14 05:30:11;;;;;;;1.80;1.70;;;8.20;99.90;;;;;;4999627;28;20480;-80
2024/02/14 05:32:39;;;;;;;1.80;1.50;;;8.30;99.90;;;;;;5001369;28;20453;-82
2024/02/14 05:35:09;;;;;;;2.03;1.80;;;8.30;99.90;;;;;;5002670;28;20549;-81
2024/02/14 05:37:38;;;;;;;2.73;1.70;;;8.40;99.90;;;;;;5004061;28;20462;-82
2024/02/14 05:40:08;;;;;;;3.63;1.80;;;8.40;99.90;;;;;;5003786;28;20442;-83
2024/02/14 05:42:36;;;;;;;2.60;1.60;;;8.30;99.90;;;;;;5001314;28;20438;-82
2024/02/14 05:45:05;;;;;;;2.40;2.20;;;8.40;99.90;;;;;;5005246;28;20438;-81
2024/02/14 05:47:33;;;;;;;1.63;1.53;;;8.40;99.90;;;;;;5008803;28;20454;-82
2024/02/14 05:50:02;;;;;;;2.40;1.73;;;8.50;99.90;;;;;;5002932;28;20510;-82
2024/02/14 05:52:32;;;;;;;1.57;1.47;;;8.50;99.90;;;;;;5004670;28;20478;-80
2024/02/14 05:55:00;;;;;;;2.63;1.50;;;8.60;99.90;;;;;;5001632;28;20553;-80
2024/02/14 05:57:28;;;;;;;2.60;1.70;;;8.60;99.90;;;;;;5000231;28;20449;-82
2024/02/14 05:59:57;;;;;;;2.03;1.83;;;8.60;99.90;;;;;;5004795;28;20458;-80
2024/02/14 06:02:25;;;;;;;2.03;1.63;;;8.60;99.90;;;;;;5010705;28;20454;-80
2024/02/14 06:04:53;;;;;;;3.17;2.60;;;8.50;99.90;;;;;;5007679;28;20454;-83
2024/02/14 06:07:24;;;;;;;1.60;1.50;;;8.50;99.90;;;;;;5008565;28;20818;-82
2024/02/14 06:09:54;;;;;;;1.77;1.67;;;8.60;99.90;;;;;;5004342;28;20553;-83
2024/02/14 06:12:23;;;;;;;2.00;1.90;;;8.60;99.90;;;;;;4987945;28;20474;-84
2024/02/14 06:14:51;;;;;;;2.37;1.80;;;8.60;99.90;;;;;;5004553;28;20465;-82
2024/02/14 06:17:19;;;;;;;2.00;1.90;;;8.70;99.90;;;;;;5007757;28;20450;-82
2024/02/14 06:19:47;;;;;;;1.70;1.60;;;8.50;99.90;;;;;;5004768;28;20490;-84
2024/02/14 06:22:15;;;;;;;2.00;1.90;;;8.60;99.90;;;;;;5007650;28;20449;-83
2024/02/14 06:24:44;;;;;;;4.77;2.20;;;8.60;99.90;;;;;;5002173;28;20468;-83
2024/02/14 06:27:14;;;;;;;1.90;1.80;;;8.60;99.90;;;;;;5008647;28;20446;-83
2024/02/14 06:29:43;;;;;;;3.60;1.90;;;8.50;99.90;;;;;;5001752;28;20468;-84
2024/02/14 06:32:13;;;;;;;2.63;2.13;;;8.40;99.90;;;;;;5008541;28;20497;-82
2024/02/14 06:34:42;;;;;;;2.57;2.47;;;8.40;99.90;;;;;;5006861;28;20992;-80
2024/02/14 06:37:10;;;;;;;2.53;2.00;;;8.50;99.90;;;;;;5006895;28;20466;-80
2024/02/14 06:39:38;;;;;;;2.80;2.60;;;8.50;99.90;;;;;;5003433;28;20476;-82
2024/02/14 06:42:07;;;;;;;2.03;1.80;;;8.50;99.90;;;;;;5005029;28;20539;-80
2024/02/14 06:44:36;;;;;;;2.67;2.53;;;8.50;99.90;;;;;;5004955;28;20442;-80
2024/02/14 06:47:05;;;;;;;4.30;4.00;;;8.50;99.90;;;;;;5008244;28;20971;-82
2024/02/14 06:49:33;;;;;;;2.80;2.60;;;8.40;99.90;;;;;;5003070;28;20481;-82
2024/02/14 06:52:01;;;;;;;3.53;2.13;;;8.40;99.90;;;;;;5009698;28;20501;-81
2024/02/14 06:54:30;;;;;;;4.03;2.10;;;8.40;99.90;;;;;;5008548;28;20446;-80
2024/02/14 06:56:59;;;;;;;2.23;1.93;;;8.30;99.90;;;;;;5007852;28;20469;-81
2024/02/14 06:59:28;;;;;;;2.40;2.30;;;8.40;99.90;;;;;;5009174;28;20469;-81
2024/02/14 07:01:59;;;;;;;2.80;2.47;;;8.30;99.90;;;;;;5007962;28;20446;-81
2024/02/14 07:04:40;;;;;;;2.07;1.97;;;8.40;99.90;;;;;;5008955;28;20477;-82
2024/02/14 07:07:09;;;;;;;2.37;2.23;;;8.40;99.90;;;;;;5010721;28;20552;-82
2024/02/14 07:09:38;;;;;;;4.10;2.53;;;8.30;99.90;;;;;;5007392;28;20879;-80
2024/02/14 07:12:07;;;;;;;3.20;2.10;;;8.40;99.90;;;;;;5010242;28;20474;-81
2024/02/14 07:14:35;;;;;;;2.00;1.80;;;8.40;99.90;;;;;;4992160;28;21124;-79
2024/02/14 07:17:05;;;;;;;4.23;2.67;;;8.40;99.90;;;;;;4993414;28;20517;-82
2024/02/14 07:19:33;;;;;;;1.90;1.80;;;8.40;99.90;;;;;;5005779;28;20753;-81
2024/02/14 07:22:02;;;;;;;2.63;2.43;;;8.50;99.90;;;;;;5008642;28;20462;-82
2024/02/14 07:24:30;;;;;;;2.03;1.93;;;8.50;99.90;;;;;;4991480;28;20453;-82
2024/02/14 07:26:58;;;;;;;2.30;2.20;;;8.50;99.90;;;;;;5008565;28;20448;-81
2024/02/14 07:29:27;;;;;;;3.33;3.13;;;8.50;99.90;;;;;;5003683;28;20512;-82
2024/02/14 07:31:55;;;;;;;3.50;3.30;;;8.60;99.90;;;;;;5014378;28;20489;-83
2024/02/14 07:34:25;;;;;;;2.17;1.97;;;8.50;99.90;;;;;;5009935;28;20458;-82
2024/02/14 07:36:54;;;;;;;3.63;3.37;;;8.50;99.90;;;;;;5007704;28;20449;-83
2024/02/14 07:39:23;;;;;;;3.17;2.90;;;8.70;99.90;;;;;;5007517;28;20543;-83
2024/02/14 07:41:51;;;;;;;2.90;2.63;;;8.70;99.90;;;;;;5010704;28;20454;-81
2024/02/14 07:44:19;;;;;;;3.37;3.07;;;8.80;99.90;;;;;;5009724;28;20492;-82
2024/02/14 07:46:47;;;;;;;2.00;1.90;;;8.80;99.90;;;;;;5006535;28;20948;-82
2024/02/14 07:49:16;;;;;;;1.80;1.67;;;8.80;99.90;;;;;;5005118;28;20489;-83
2024/02/14 07:51:45;;;;;;;1.90;1.80;;;8.80;99.90;;;;;;5004006;28;20478;-84
2024/02/14 07:54:15;;;;;;;3.10;1.93;;;8.80;99.90;;;;;;5007588;28;20470;-83
2024/02/14 07:56:43;;;;;;;2.13;1.60;;;8.80;99.90;;;;;;5008967;28;21277;-82
2024/02/14 07:59:12;;;;;;;1.60;1.50;;;8.90;99.90;;;;;;5007822;28;20986;-82
2024/02/14 08:01:41;;;;;;;2.40;2.10;;;8.90;99.90;;;;;;5005663;28;20533;-80
2024/02/14 08:04:09;;;;;;;1.93;1.83;;;8.90;99.90;;;;;;5001151;28;20470;-80
2024/02/14 08:06:37;;;;;;;2.20;1.70;;;9.00;99.90;;;;;;5004418;28;21259;-80
2024/02/14 08:09:09;;;;;;;6.93;2.23;;;9.10;99.90;;;;;;5002655;28;20485;-81
2024/02/14 08:11:38;;;;;;;2.40;2.20;;;9.10;99.90;;;;;;5003060;28;20500;-81
2024/02/14 08:14:06;;;;;;;4.20;3.10;;;9.10;99.90;;;;;;5004085;28;20508;-79
2024/02/14 08:16:35;;;;;;;2.10;1.90;;;9.20;99.90;;;;;;5001527;28;20447;-80
2024/02/14 08:19:03;;;;;;;3.50;2.00;;;9.20;99.90;;;;;;5005285;28;20977;-82
2024/02/14 08:21:32;;;;;;;2.80;1.97;;;9.20;99.90;;;;;;5002730;28;20464;-79
2024/02/14 08:24:00;;;;;;;2.43;1.93;;;9.30;99.90;;;;;;5002337;28;20470;-81
2024/02/14 08:26:31;;;;;;;2.13;1.57;;;9.40;99.90;;;;;;5006634;28;20533;-80
2024/02/14 08:29:00;;;;;;;2.07;1.97;;;9.50;99.90;;;;;;5012555;28;20544;-80
2024/02/14 08:31:28;;;;;;;2.30;1.80;;;9.50;99.90;;;;;;5010697;28;20450;-80
2024/02/14 08:33:56;;;;;;;4.80;1.90;;;9.60;99.90;;;;;;5007399;28;20463;-79
2024/02/14 08:36:25;;;;;;;1.60;1.50;;;9.70;99.90;;;;;;5002948;28;20457;-79
2024/02/14 08:38:53;;;;;;;1.80;1.70;;;9.80;99.90;;;;;;5002315;28;20536;-79
2024/02/14 08:41:24;;;;;;;2.13;1.73;;;9.90;99.90;;;;;;4999432;28;20454;-83
2024/02/14 08:43:53;;;;;;;1.50;1.40;;;10.00;99.90;;;;;;4999442;28;20447;-79
2024/02/14 08:46:23;;;;;;;1.70;1.60;;;10.00;99.90;;;;;;4999265;28;20462;-79
2024/02/14 08:48:51;;;;;;;4.50;3.17;;;10.00;99.90;;;;;;5000824;28;20488;-79
2024/02/14 08:51:20;;;;;;;2.23;2.03;;;10.00;99.90;;;;;;5004785;28;20442;-79
2024/02/14 08:53:49;;;;;;;2.00;1.73;;;10.00;99.90;;;;;;5000385;28;20478;-81
2024/02/14 08:56:17;;;;;;;1.63;1.53;;;10.00;99.90;;;;;;4995489;28;20458;-82
2024/02/14 08:58:45;;;;;;;1.63;1.53;;;10.10;99.90;;;;;;4998788;28;20467;-79
2024/02/14 09:01:15;;;;;;;3.43;1.83;;;10.10;99.90;;;;;;5000437;28;20446;-81
2024/02/14 09:03:47;;;;;;;1.83;1.63;;;10.10;99.90;;;;;;4998496;28;20524;-82
2024/02/14 09:06:18;;;;;;;2.00;1.90;;;10.10;99.90;;;;;;5000732;28;20809;-79
2024/02/14 09:08:47;;;;;;;3.53;1.80;;;10.10;99.90;;;;;;5003152;28;20508;-80
2024/02/14 09:11:16;;;;;;;2.13;1.70;;;10.20;99.90;;;;;;4998878;28;20462;-81
2024/02/14 09:13:47;;;;;;;1.97;1.87;;;10.10;99.90;;;;;;4999977;28;20516;-80
2024/02/14 09:16:18;;;;;;;1.70;1.60;;;10.20;99.90;;;;;;4998256;28;20458;-81
2024/02/14 09:18:46;;;;;;;1.80;1.70;;;10.20;99.90;;;;;;4999981;28;20549;-81
2024/02/14 09:21:15;;;;;;;3.93;1.60;;;10.30;99.90;;;;;;5000401;28;20814;-79
2024/02/14 09:23:47;;;;;;;1.73;1.60;;;10.30;99.90;;;;;;4999164;28;20465;-79
2024/02/14 09:26:16;;;;;;;2.00;1.77;;;10.40;99.90;;;;;;4998598;28;20453;-84
2024/02/14 09:28:45;;;;;;;2.70;1.73;;;10.40;99.90;;;;;;5003410;28;20475;-82
2024/02/14 09:31:13;;;;;;;1.80;1.70;;;10.40;99.90;;;;;;4984630;28;20453;-81
2024/02/14 09:33:44;;;;;;;2.73;2.00;;;10.50;99.90;;;;;;4999795;28;21062;-81
2024/02/14 09:36:14;;;;;;;2.03;1.83;;;10.60;99.90;;;;;;5001037;28;20454;-80
2024/02/14 09:38:42;;;;;;;2.07;1.97;;;10.80;99.90;;;;;;5001223;28;20473;-80
2024/02/14 09:41:17;;;;;;;1.90;1.80;;;10.80;99.90;;;;;;4998451;28;20457;-82
2024/02/14 09:43:46;;;;;;;1.83;1.70;;;11.00;99.90;;;;;;4998582;28;20422;-80
2024/02/14 09:46:15;;;;;;;1.90;1.80;;;11.00;99.90;;;;;;4997612;28;20462;-79
2024/02/14 09:48:46;;;;;;;1.90;1.80;;;11.00;99.90;;;;;;4998938;28;20467;-82
2024/02/14 09:51:15;;;;;;;1.60;1.50;;;10.80;99.90;;;;;;5010077;28;20457;-80
2024/02/14 09:53:43;;;;;;;2.00;1.87;;;10.90;99.90;;;;;;5005002;28;20498;-80
2024/02/14 09:56:14;;;;;;;1.60;1.50;;;10.90;99.90;;;;;;5005464;28;20447;-80
2024/02/14 09:58:42;;;;;;;1.80;1.70;;;11.10;99.90;;;;;;5001183;28;20473;-82
2024/02/14 10:01:11;;;;;;;1.43;1.43;;;11.10;99.90;;;;;;5000515;28;20528;-85
2024/02/14 10:03:39;;;;;;;1.60;1.50;;;11.40;99.90;;;;;;5003393;28;20454;-81
2024/02/14 10:06:09;;;;;;;1.70;1.60;;;11.50;99.90;;;;;;5003768;28;20465;-81
2024/02/14 10:08:38;;;;;;;4.90;1.70;;;11.50;99.90;;;;;;4988472;28;21125;-81
2024/02/14 10:11:17;;;;;;;1.90;1.80;;;11.50;99.90;;;;;;5003739;28;20458;-81
2024/02/14 10:13:47;;;;;;;3.37;2.47;;;11.40;99.90;;;;;;4998310;28;20473;-81
2024/02/14 10:16:15;;;;;;;2.33;2.20;;;11.60;99.90;;;;;;4999424;28;20775;-80
2024/02/14 10:18:43;;;;;;;2.70;1.90;;;11.90;99.90;;;;;;4999971;28;20486;-81
2024/02/14 10:21:19;;;;;;;1.93;1.80;;;12.20;99.90;;;;;;5005708;28;20460;-81
2024/02/14 10:23:47;;;;;;;2.03;1.93;;;13.60;99.90;;;;;;5003301;28;20471;-83
2024/02/14 10:26:15;;;;;;;2.60;2.40;;;15.10;99.90;;;;;;5005686;28;20454;-84
2024/02/14 10:28:44;;;;;;;2.10;2.00;;;16.10;99.90;;;;;;5000153;28;20533;-78
2024/02/14 10:31:16;;;;;;;1.60;1.50;;;17.20;99.90;;;;;;5005034;28;20519;-79
2024/02/14 10:33:45;;;;;;;1.80;1.70;;;18.00;99.90;;;;;;5002821;28;20539;-82
2024/02/14 10:36:14;;;;;;;1.63;1.53;;;17.60;99.90;;;;;;5004293;28;21005;-80
2024/02/14 10:38:48;;;;;;;1.67;1.57;;;16.80;99.90;;;;;;5006049;28;20469;-82
2024/02/14 10:41:17;;;;;;;1.67;1.57;;;16.00;99.90;;;;;;5004468;28;20442;-81
2024/02/14 10:43:45;;;;;;;1.77;1.67;;;16.40;99.90;;;;;;5004255;28;20448;-79
2024/02/14 10:46:21;;;;;;;2.90;2.00;;;16.70;99.90;;;;;;5000612;28;20469;-81
2024/02/14 10:48:54;;;;;;;1.80;1.70;;;18.10;99.90;;;;;;4998911;28;21098;-80
2024/02/14 10:51:23;;;;;;;1.87;1.77;;;19.90;99.90;;;;;;5001428;28;20477;-80
2024/02/14 10:53:55;;;;;;;1.67;1.57;;;21.00;99.90;;;;;;4998454;28;20482;-79
2024/02/14 10:56:27;;;;;;;2.10;2.00;;;20.50;99.90;;;;;;5001067;28;20453;-80
2024/02/14 10:58:58;;;;;;;1.83;1.70;;;20.70;99.90;;;;;;4997300;28;20475;-80
2024/02/14 11:01:30;;;;;;;1.90;1.80;;;21.00;99.90;;;;;;4999630;28;20962;-80
2024/02/14 11:04:00;;;;;;;2.47;1.85;;;20.70;99.90;;;;;;5001906;28;20545;-81
2024/02/14 11:06:29;;;;;;;1.83;1.73;;;19.10;99.90;;;;;;5005200;28;20199;-81
2024/02/14 11:09:01;;;;;;;1.60;1.50;;;17.90;99.90;;;;;;5010097;28;20567;-82
2024/02/14 11:11:30;;;;;;;1.83;1.73;;;16.70;99.90;;;;;;5006533;28;20435;-82
2024/02/14 11:13:59;;;;;;;1.83;1.50;;;15.90;99.90;;;;;;5011091;28;20481;-84
2024/02/14 11:16:28;;;;;;;1.70;1.60;;;15.40;99.90;;;;;;5011644;28;20522;-82
2024/02/14 11:19:08;;;;;;;1.57;1.47;;;15.10;99.90;;;;;;5011553;28;20486;-82
2024/02/14 11:21:39;;;;;;;1.70;1.60;;;14.70;99.90;;;;;;5012176;28;20457;-84
2024/02/14 11:24:09;;;;;;;1.47;1.47;;;14.60;99.90;;;;;;5013033;28;20449;-83
2024/02/14 11:26:41;;;;;;;1.93;1.80;;;14.50;99.90;;;;;;5012796;28;21322;-82
2024/02/14 11:29:16;;;;;;;1.53;1.47;;;14.30;99.90;;;;;;5010690;28;20488;-81
2024/02/14 11:31:50;;;;;;;2.10;2.00;;;14.20;99.90;;;;;;5011464;28;20445;-84
2024/02/14 11:34:19;;;;;;;3.50;3.20;;;14.10;99.90;;;;;;4995121;28;20558;-83
2024/02/14 11:36:48;;;;;;;2.00;1.80;;;13.90;99.90;;;;;;5009082;28;20453;-83
2024/02/14 11:39:17;;;;;;;1.60;1.60;;;13.70;99.90;;;;;;5007991;28;20466;-83
2024/02/14 11:41:46;;;;;;;1.70;1.57;;;13.60;99.90;;;;;;5007610;28;20434;-83
2024/02/14 11:44:14;;;;;;;2.53;2.33;;;13.60;99.90;;;;;;5010309;28;20442;-83
2024/02/14 11:46:42;;;;;;;2.63;2.53;;;13.50;99.90;;;;;;5014022;28;21109;-83
2024/02/14 11:49:11;;;;;;;2.57;1.70;;;13.50;99.90;;;;;;5010818;28;20479;-83
2024/02/14 11:51:41;;;;;;;2.93;2.23;;;13.50;99.90;;;;;;4990083;28;20549;-82
2024/02/14 11:54:10;;;;;;;1.87;1.70;;;13.60;99.90;;;;;;5008983;28;20474;-79
2024/02/14 11:56:40;;;;;;;2.00;1.70;;;13.60;99.90;;;;;;5004938;28;20442;-80
2024/02/14 11:59:10;;;;;;;3.50;1.70;;;13.70;99.90;;;;;;5007211;28;20473;-81
2024/02/14 12:01:39;;;;;;;1.50;1.50;;;13.80;99.90;;;;;;4985940;28;21142;-80
2024/02/14 12:04:08;;;;;;;1.97;1.87;;;14.00;99.90;;;;;;5005661;28;20446;-79
2024/02/14 12:06:38;;;;;;;1.70;1.60;;;14.10;99.90;;;;;;5001874;28;20548;-80
2024/02/14 12:09:09;;;;;;;1.63;1.60;;;14.30;99.90;;;;;;5005116;28;20540;-82
2024/02/14 12:11:43;;;;;;;1.80;1.70;;;14.30;99.90;;;;;;5005949;28;20960;-81
2024/02/14 12:14:13;;;;;;;1.70;1.60;;;14.50;99.90;;;;;;5007361;28;21073;-80
2024/02/14 12:16:41;;;;;;;1.80;1.70;;;14.60;99.90;;;;;;5004487;28;21027;-81
2024/02/14 12:19:15;;;;;;;1.70;1.60;;;14.50;99.90;;;;;;5006065;28;20493;-80
2024/02/14 12:21:45;;;;;;;1.90;1.80;;;14.40;99.90;;;;;;5015814;28;20453;-82
2024/02/14 12:24:14;;;;;;;1.80;1.70;;;14.30;99.90;;;;;;5011800;28;20504;-82
2024/02/14 12:26:45;;;;;;;1.70;1.60;;;14.30;99.90;;;;;;5009905;28;20459;-82
2024/02/14 12:29:14;;;;;;;1.90;1.80;;;14.30;99.90;;;;;;5009514;28;20528;-80
2024/02/14 12:31:43;;;;;;;1.80;1.70;;;14.30;99.90;;;;;;5012383;28;20525;-80
2024/02/14 12:34:13;;;;;;;1.70;1.70;;;14.30;99.90;;;;;;5009570;28;20466;-81
2024/02/14 12:36:42;;;;;;;2.40;1.80;;;14.30;99.90;;;;;;5002699;28;20528;-80
2024/02/14 12:39:12;;;;;;;2.20;1.90;;;14.10;99.90;;;;;;5004269;28;20568;-82
2024/02/14 12:41:41;;;;;;;1.70;1.60;;;14.10;99.90;;;;;;5006727;28;20485;-80
2024/02/14 12:44:11;;;;;;;1.53;1.53;;;14.00;99.90;;;;;;5009780;28;20446;-81
2024/02/14 12:46:39;;;;;;;1.73;1.63;;;14.00;99.90;;;;;;5008723;28;20438;-81
2024/02/14 12:49:08;;;;;;;1.87;1.77;;;13.90;99.90;;;;;;5006692;28;20521;-83
2024/02/14 12:51:38;;;;;;;1.50;1.50;;;13.90;99.90;;;;;;4995083;28;20508;-80
2024/02/14 12:54:07;;;;;;;1.60;1.50;;;13.80;99.90;;;;;;5008797;28;20493;-82
2024/02/14 12:56:36;;;;;;;1.80;1.80;;;13.80;99.90;;;;;;5018489;28;20479;-81
2024/02/14 12:59:04;;;;;;;2.20;1.67;;;13.80;99.90;;;;;;5006502;28;20750;-82
2024/02/14 13:01:34;;;;;;;2.03;1.93;;;13.80;99.90;;;;;;5009386;28;20459;-83